Coastal Carolina Regional Airport
KEWN : now visible

Airfield :











YOU CAN JOIN US ON...

 
LOGIN :

Register | Disclaimer

   EN    FR    IT 

 









Legend :    VFR   Marginal VFR   IFR   Intensive IFR   Very Intensive IFR
Visi :
Ceiling :
>= 8 km
>= 3000ft
5 to 8 km
1000 to 3000 ft
1500m to 5 km
500 to 1000 ft
800 to 1500m
200 to 500 ft
< 800m
< 200 ft
Symbols :   Thunderstorms  Fog  Heavy snow  Heavy precipitations  Wind > 20 kt






- Airport Elevation : 18 ft
- IATA code : EWN


KEWN - Coastal Carolina Regional

CURRENT METAR :
  • 250654Z AUTO 05006KT 9SM OVC005 16/16 A3013 RMK AO2 SLP203 T01610156

EXPIRED METARs :
  • 250554Z AUTO 07007KT 10SM OVC006 16/15 A3014 RMK AO2 SLP207 T01610150 10222 20161 58005
  • 250454Z AUTO 07008KT 10SM OVC006 17/15 A3016 RMK AO2 SLP213 T01670150 402830167

TAF KEWN
Valid from the 25 at 06:00 until the 26 at 06:00 UTC


250532Z 2506/2606 05005KT P6SM OVC005
FM251500 04005KT P6SM BKN015
FM252100 05005KT P6SM BKN025
FM260200 07004KT P6SM BKN015
KZDC FIR / North America



MET'MAP, your aeronautical weather chart ! - Copyright ORBIFLY December 2007 - Disclaimer

ORBIFLY MET'MAP TEAM :

Programming & Development : Alexandra Zaïnal
Concept & original design : Baudouin d'Aumeries
Assistance for programming : Marc-Olivier Méhu
Technical & hardware support : Manuel Goepfert

Contact : metmap@orbifly.com




SOURCES & CREDITS :

   NOAA       Earth
Advisory